Lehi, UT

11:17 AM MST on December 03, 2016 (GMT -0700)
Ivory Ridge | | Change Station

Elev 4800 ft 40.43 °N, 111.84 °W | Updated 5 seconds ago

Overcast
Overcast
28.8 °F
Feels Like 29 °F
N
2.0
Wind Variable Wind from SE
Gusts 5.8 mph

Today
High -- | Low -- °F
--% Chance of Precip.
Yesterday
High -- | Low -- °F
Precip. -- in
Pressure 30.44 in
Visibility 10.0 miles
Clouds Overcast 6500 ft
Windchill 29 °F
Dew Point 18 °F
Humidity 64%
Rainfall 0.00 in
Snow Depth Not available.
7:33 AM 5:00 PM
Waxing Crescent, 16% visible
METAR KPVU 031756Z 00000KT 10SM OVC065 M02/M08 A3033 RMK AO2 SLP307 T10221083 11022 21067 50003 FZRANO
Pressure 30.44 in
Visibility 10.0 miles
Clouds Overcast 6500 ft
Windchill 29 °F
Dew Point 18 °F
Humidity 64%
Rainfall 0.00 in
Snow Depth Not available.
7:33 AM 5:00 PM
Waxing Crescent, 16% visible
METAR KPVU 031756Z 00000KT 10SM OVC065 M02/M08 A3033 RMK AO2 SLP307 T10221083 11022 21067 50003 FZRANO

10-Day Weather Forecast

Almanac

Astronomy

Dec. 03, 2016 Rise Set
Actual Time
Civil Twilight
Nautical Twilight
Astronomical Twilight
Moon
Length of Visible Light
Length of Day
Tomorrow will be .
, % of the Moon is Illuminated

Today's Extremes

State Highs State Lows

Community

WunderPhotos

Upload Photos

1,955,457 photos uploaded!

WunderBlog® & News

Nearby

Air Quality

  Air Quality AQ Index Pollutant
Not available.

Snow Depth

Station Depth Elevation

Earthquake Activity

City Distance Mag. Time & Date
Minimum magnitude displayed is 2.5.

Coastal Water Temperatures

Place Temperature

Stations

Nearby Weather Stations

Station Location Temp. Windchill Dew Point Humidity Wind Precip. Elev Updated Type
                   

Watches & Warnings

There are currently no watches in effect.